Time;durP1;ratioP1;P1;durP2;ratioP2;P2;SDS_P1;SDS_P2;PMS_P1;PMS_P2;Temp;Humidity;BMP_temperature;BMP_pressure;BME280_temperature;BME280_humidity;BME280_pressure;Samples;Min_cycle;Max_cycle;Signal;HPM_P1;HPM_P2
2023/01/09 00:01:47;;;;;;;65.10;36.40;;;;;;;0.13;78.56;96199.02;104342;1277;100246;-71
2023/01/09 00:04:15;;;;;;;69.80;37.80;;;;;;;0.09;78.59;96191.92;104249;1271;95827;-73
2023/01/09 00:06:45;;;;;;;68.10;38.10;;;;;;;0.04;78.71;96190.82;104298;1267;95880;-71
2023/01/09 00:11:49;;;;;;;69.80;37.60;;;;;;;0.02;78.78;96189.04;102083;1294;636141;-70
2023/01/09 00:14:18;;;;;;;69.90;39.30;;;;;;;-0.02;78.63;96184.51;104860;1260;95864;-72
2023/01/09 00:16:46;;;;;;;77.10;42.10;;;;;;;-0.07;78.76;96178.83;104972;1262;95939;-71
2023/01/09 00:19:15;;;;;;;70.00;38.60;;;;;;;-0.10;78.94;96177.41;104842;1263;100086;-72
2023/01/09 00:21:43;;;;;;;67.80;36.90;;;;;;;-0.10;78.99;96180.86;104873;1269;102016;-73
2023/01/09 00:24:11;;;;;;;68.20;38.80;;;;;;;-0.12;78.95;96178.23;104903;1259;100594;-73
2023/01/09 00:26:39;;;;;;;66.20;38.90;;;;;;;-0.15;79.05;96176.27;105047;1256;95931;-73
2023/01/09 00:29:07;;;;;;;65.70;34.40;;;;;;;-0.13;79.12;96172.47;105169;1266;97207;-71
2023/01/09 00:31:35;;;;;;;70.50;37.00;;;;;;;-0.10;79.14;96176.05;104950;1256;99884;-71
2023/01/09 00:34:09;;;;;;;65.70;35.60;;;;;;;-0.13;79.04;96175.33;104956;1256;101799;-71
2023/01/09 00:36:37;;;;;;;56.70;33.90;;;;;;;-0.16;79.01;96178.70;105101;1257;100690;-70
2023/01/09 00:39:07;;;;;;;59.40;32.80;;;;;;;-0.16;79.09;96179.25;104962;1255;95960;-72
2023/01/09 00:41:48;;;;;;;53.40;30.90;;;;;;;-0.19;78.97;96179.06;105078;1258;95858;-70
2023/01/09 00:44:21;;;;;;;55.50;30.30;;;;;;;-0.23;78.98;96182.66;105302;1272;101701;-71
2023/01/09 00:46:53;;;;;;;64.00;34.80;;;;;;;-0.23;79.04;96185.35;105030;1259;99992;-72
2023/01/09 00:49:22;;;;;;;67.70;35.50;;;;;;;-0.24;79.02;96188.52;105023;1260;100223;-71
2023/01/09 00:51:51;;;;;;;61.00;33.30;;;;;;;-0.24;79.08;96193.05;105240;1257;95964;-72
2023/01/09 00:54:20;;;;;;;56.20;31.50;;;;;;;-0.26;79.16;96189.42;104920;1260;96852;-71
2023/01/09 00:56:50;;;;;;;53.60;31.70;;;;;;;-0.27;79.09;96189.30;104952;1255;100865;-73
2023/01/09 00:59:18;;;;;;;56.10;30.20;;;;;;;-0.27;79.11;96181.73;105297;1255;102119;-72
2023/01/09 01:01:46;;;;;;;46.80;29.20;;;;;;;-0.27;79.15;96186.80;105207;1266;100773;-71
2023/01/09 01:09:46;;;;;;;39.90;24.40;;;;;;;-0.33;78.97;96169.69;105230;1253;101354;-71
2023/01/09 01:12:14;;;;;;;41.10;21.50;;;;;;;-0.36;79.06;96168.38;104973;1256;101934;-71
2023/01/09 01:14:42;;;;;;;32.90;21.10;;;;;;;-0.36;79.13;96171.59;104802;1259;101432;-73
2023/01/09 01:17:10;;;;;;;33.20;20.90;;;;;;;-0.36;79.10;96167.33;105105;1256;96816;-71
2023/01/09 01:19:38;;;;;;;35.60;22.20;;;;;;;-0.37;79.16;96161.98;104899;1259;96990;-71
2023/01/09 01:22:06;;;;;;;34.60;21.80;;;;;;;-0.38;79.24;96153.63;105045;1258;101430;-72
2023/01/09 01:24:34;;;;;;;35.90;22.00;;;;;;;-0.43;79.36;96159.11;105065;1258;101819;-71
2023/01/09 01:27:05;;;;;;;33.50;22.50;;;;;;;-0.44;79.44;96159.58;104943;1255;100755;-71
2023/01/09 01:29:33;;;;;;;34.10;20.70;;;;;;;-0.41;79.40;96155.92;104937;1256;96127;-71
2023/01/09 01:32:01;;;;;;;30.30;19.50;;;;;;;-0.38;79.59;96153.42;104781;1259;95907;-71
2023/01/09 01:34:30;;;;;;;27.90;18.10;;;;;;;-0.36;79.61;96150.88;104915;1258;101015;-72
2023/01/09 01:36:58;;;;;;;28.90;19.00;;;;;;;-0.33;79.57;96158.05;104946;1259;101971;-71
2023/01/09 01:39:26;;;;;;;32.50;20.50;;;;;;;-0.31;79.59;96153.38;104961;1258;100265;-70
2023/01/09 01:41:54;;;;;;;31.60;20.70;;;;;;;-0.29;79.71;96144.89;104956;1260;95848;-74
2023/01/09 01:44:59;;;;;;;32.50;20.90;;;;;;;-0.30;79.67;96138.39;105271;1256;96766;-71
2023/01/09 01:47:38;;;;;;;32.30;21.30;;;;;;;-0.33;79.63;96142.98;105017;1259;100989;-73
2023/01/09 01:50:43;;;;;;;36.20;22.20;;;;;;;-0.32;79.72;96145.92;105012;1256;101913;-72
2023/01/09 01:53:37;;;;;;;38.30;23.80;;;;;;;-0.32;79.67;96141.84;104926;1256;100114;-72
2023/01/09 01:56:08;;;;;;;33.70;21.70;;;;;;;-0.32;79.62;96131.17;104494;1273;96356;-72
2023/01/09 01:58:43;;;;;;;36.90;23.00;;;;;;;-0.29;79.60;96126.85;104462;1265;96093;-73
2023/01/09 02:01:12;;;;;;;44.70;24.40;;;;;;;-0.29;79.58;96130.36;104489;1265;101842;-72
2023/01/09 02:03:42;;;;;;;37.20;22.50;;;;;;;-0.32;79.64;96128.42;104471;1260;101846;-71
2023/01/09 02:06:12;;;;;;;33.60;22.00;;;;;;;-0.37;79.76;96125.91;104662;1265;100682;-71
2023/01/09 02:08:40;;;;;;;29.80;17.90;;;;;;;-0.39;79.85;96125.29;104513;1265;96945;-71
2023/01/09 02:11:08;;;;;;;26.60;19.00;;;;;;;-0.39;79.94;96123.54;104584;1263;97268;-71
2023/01/09 02:13:39;;;;;;;26.60;17.90;;;;;;;-0.37;80.17;96105.21;104667;1274;101145;-70
2023/01/09 02:16:22;;;;;;;28.00;17.90;;;;;;;-0.33;80.25;96105.39;104621;1268;100296;-71
2023/01/09 02:18:59;;;;;;;25.30;16.60;;;;;;;-0.31;80.33;96098.91;104602;1275;100462;-71
2023/01/09 02:21:38;;;;;;;27.50;17.00;;;;;;;-0.29;80.41;96100.34;104551;1265;95997;-73
2023/01/09 02:24:48;;;;;;;27.90;17.90;;;;;;;-0.29;80.43;96098.58;104429;1264;97234;-71
2023/01/09 02:27:39;;;;;;;25.00;16.50;;;;;;;-0.31;80.59;96100.90;104124;1271;101488;-70
2023/01/09 02:30:19;;;;;;;25.20;17.00;;;;;;;-0.32;80.66;96099.38;104124;1271;102068;-71
2023/01/09 02:32:56;;;;;;;24.20;16.50;;;;;;;-0.31;80.65;96099.29;104139;1281;100541;-71
2023/01/09 02:35:58;;;;;;;25.70;17.40;;;;;;;-0.31;80.65;96090.99;104648;1259;96009;-71
2023/01/09 02:38:59;;;;;;;28.50;17.90;;;;;;;-0.31;80.66;96092.19;104530;1261;96233;-71
2023/01/09 02:41:40;;;;;;;26.90;16.70;;;;;;;-0.30;80.79;96094.77;104458;1265;101568;-72
2023/01/09 02:44:12;;;;;;;27.30;18.10;;;;;;;-0.27;80.88;96092.96;104461;1264;101969;-71
2023/01/09 02:46:41;;;;;;;30.70;19.90;;;;;;;-0.23;80.90;96093.98;104434;1265;100442;-71
2023/01/09 02:49:09;;;;;;;31.50;19.20;;;;;;;-0.21;80.89;96090.36;104450;1265;96765;-71
2023/01/09 02:52:01;;;;;;;28.70;17.80;;;;;;;-0.20;80.78;96081.20;104444;1264;96015;-71
2023/01/09 02:54:50;;;;;;;26.90;16.70;;;;;;;-0.21;80.69;96080.29;104431;1265;101003;-72
2023/01/09 02:57:20;;;;;;;20.60;14.60;;;;;;;-0.24;80.70;96089.50;104483;1266;102115;-71
2023/01/09 03:00:17;;;;;;;25.40;16.40;;;;;;;-0.24;80.79;96091.73;104486;1263;100650;-70
2023/01/09 03:02:51;;;;;;;21.20;15.20;;;;;;;-0.24;80.84;96092.27;103898;1272;96167;-71
2023/01/09 03:05:31;;;;;;;23.60;16.10;;;;;;;-0.23;80.83;96095.71;104364;1272;96074;-71
2023/01/09 03:08:07;;;;;;;23.80;15.20;;;;;;;-0.22;80.95;96090.59;104328;1269;102006;-71
2023/01/09 03:10:41;;;;;;;20.90;14.30;;;;;;;-0.21;80.99;96091.42;104555;1262;101776;-72
2023/01/09 03:13:14;;;;;;;21.80;13.80;;;;;;;-0.22;81.04;96092.39;104309;1266;99040;-71
2023/01/09 03:15:48;;;;;;;23.00;14.80;;;;;;;-0.21;81.10;96080.77;104524;1271;96133;-74
2023/01/09 03:18:20;;;;;;;22.40;14.90;;;;;;;-0.18;81.25;96077.05;104549;1273;95824;-72
2023/01/09 03:20:49;;;;;;;21.20;13.90;;;;;;;-0.14;81.47;96076.63;104541;1260;101563;-70
2023/01/09 03:23:18;;;;;;;21.70;14.30;;;;;;;-0.10;81.52;96076.85;104542;1268;111125;-73
2023/01/09 03:25:46;;;;;;;21.60;13.80;;;;;;;-0.07;81.56;96070.63;104879;1263;100306;-71
2023/01/09 03:28:30;;;;;;;23.40;15.30;;;;;;;-0.09;81.52;96060.03;104761;1262;96040;-72
2023/01/09 03:30:58;;;;;;;26.20;16.50;;;;;;;-0.08;81.47;96061.59;104604;1263;95957;-73
2023/01/09 03:33:27;;;;;;;27.80;17.40;;;;;;;-0.06;81.38;96073.41;104540;1271;101488;-73
2023/01/09 03:35:55;;;;;;;31.80;18.20;;;;;;;-0.07;81.35;96064.06;104817;1268;102136;-71
2023/01/09 03:38:23;;;;;;;30.30;18.70;;;;;;;-0.09;81.41;96059.40;104537;1262;101072;-71
2023/01/09 03:40:52;;;;;;;28.40;17.60;;;;;;;-0.09;81.56;96046.17;104789;1263;95867;-72
2023/01/09 03:43:20;;;;;;;29.30;17.40;;;;;;;-0.08;81.60;96046.56;105034;1258;95846;-73
2023/01/09 03:45:48;;;;;;;33.60;19.90;;;;;;;-0.05;81.69;96052.34;105109;1274;101327;-71
2023/01/09 03:48:16;;;;;;;30.30;19.30;;;;;;;-0.01;81.77;96057.15;104848;1259;102038;-73
2023/01/09 03:50:46;;;;;;;30.80;19.40;;;;;;;0.02;81.79;96055.10;104888;1269;100402;-72
2023/01/09 03:53:14;;;;;;;34.10;19.60;;;;;;;0.02;81.74;96045.88;104935;1258;96142;-71
2023/01/09 03:55:50;;;;;;;32.60;18.30;;;;;;;0.03;81.76;96049.39;104698;1259;95861;-73
2023/01/09 03:58:19;;;;;;;32.40;20.50;;;;;;;0.03;81.72;96047.60;104909;1259;101359;-73
2023/01/09 04:00:49;;;;;;;29.80;18.30;;;;;;;0.03;81.73;96046.30;104927;1262;101948;-73
2023/01/09 04:03:20;;;;;;;28.20;18.30;;;;;;;0.05;81.74;96037.77;104994;1258;100551;-71
2023/01/09 04:05:49;;;;;;;28.40;18.60;;;;;;;0.07;81.70;96035.23;104890;1270;97244;-73
2023/01/09 04:08:18;;;;;;;30.20;19.00;;;;;;;0.10;81.78;96035.29;104954;1258;96133;-71
2023/01/09 04:10:47;;;;;;;29.10;18.60;;;;;;;0.12;81.78;96037.80;105215;1258;101840;-71
2023/01/09 04:13:15;;;;;;;28.30;18.10;;;;;;;0.13;81.80;96030.61;105030;1256;100351;-71
2023/01/09 04:15:44;;;;;;;27.80;17.40;;;;;;;0.13;81.85;96022.09;105226;1267;100397;-72
2023/01/09 04:18:12;;;;;;;25.00;17.30;;;;;;;0.16;81.94;96021.38;105219;1257;95892;-72
2023/01/09 04:20:41;;;;;;;29.10;17.70;;;;;;;0.18;81.96;96024.18;105120;1257;96349;-74
2023/01/09 04:23:09;;;;;;;31.30;21.60;;;;;;;0.19;82.02;96020.39;105127;1267;101567;-71
2023/01/09 04:25:37;;;;;;;34.10;21.10;;;;;;;0.22;82.10;96018.25;105168;1254;102073;-74
2023/01/09 04:28:05;;;;;;;31.40;19.90;;;;;;;0.26;82.05;96023.04;105290;1266;100402;-70
2023/01/09 04:30:33;;;;;;;29.60;19.40;;;;;;;0.29;82.12;96021.41;104986;1266;96578;-72
2023/01/09 04:33:01;;;;;;;29.70;20.20;;;;;;;0.29;82.03;96014.67;104980;1266;97068;-72
2023/01/09 04:35:29;;;;;;;27.20;19.30;;;;;;;0.28;82.03;96018.50;105327;1256;102587;-71
2023/01/09 04:37:59;;;;;;;32.30;19.40;;;;;;;0.28;82.09;96021.52;105125;1267;101934;-71
2023/01/09 04:40:27;;;;;;;29.80;20.60;;;;;;;0.29;82.17;96011.86;105177;1266;100288;-70
2023/01/09 04:42:55;;;;;;;34.80;20.40;;;;;;;0.31;82.20;96004.78;105288;1266;96649;-71
2023/01/09 04:45:23;;;;;;;36.50;20.90;;;;;;;0.31;82.19;95999.44;105282;1257;97237;-74
2023/01/09 04:47:51;;;;;;;39.10;22.20;;;;;;;0.33;82.21;95997.66;105113;1255;102512;-71
2023/01/09 04:50:20;;;;;;;41.00;23.30;;;;;;;0.33;82.27;96000.75;105045;1261;101625;-71
2023/01/09 04:52:48;;;;;;;44.10;26.10;;;;;;;0.33;82.23;96002.02;105260;1275;98521;-71
2023/01/09 04:55:16;;;;;;;46.60;26.90;;;;;;;0.35;82.31;95994.15;105254;1266;96548;-70
2023/01/09 04:57:44;;;;;;;41.20;25.00;;;;;;;0.40;82.30;95985.53;105036;1266;96590;-71
2023/01/09 05:00:12;;;;;;;39.40;22.30;;;;;;;0.42;82.35;95973.77;105084;1254;102712;-72
2023/01/09 05:02:40;;;;;;;41.20;24.20;;;;;;;0.43;82.30;95972.27;105272;1266;101808;-71
2023/01/09 05:05:10;;;;;;;44.20;24.40;;;;;;;0.44;82.41;95978.63;105236;1267;100464;-72
2023/01/09 05:07:39;;;;;;;47.60;25.40;;;;;;;0.47;82.42;95974.18;105202;1256;96559;-72
2023/01/09 05:10:09;;;;;;;39.60;24.80;;;;;;;0.48;82.51;95969.33;105317;1255;96574;-71
2023/01/09 05:12:38;;;;;;;40.60;24.30;;;;;;;0.48;82.46;95968.69;105030;1258;102684;-73
2023/01/09 05:15:08;;;;;;;46.70;24.90;;;;;;;0.49;82.44;95964.11;104974;1256;102174;-74
2023/01/09 05:17:36;;;;;;;41.00;24.80;;;;;;;0.51;82.57;95964.66;104922;1260;100367;-74
2023/01/09 05:20:04;;;;;;;41.20;25.10;;;;;;;0.54;82.55;95970.51;104920;1266;97464;-74
2023/01/09 05:22:32;;;;;;;43.10;25.60;;;;;;;0.57;82.55;95973.87;104983;1265;97009;-71
2023/01/09 05:25:00;;;;;;;41.50;25.00;;;;;;;0.59;82.53;95972.91;104860;1269;102544;-73
2023/01/09 05:27:29;;;;;;;43.70;25.70;;;;;;;0.61;82.54;95972.15;104928;1257;101824;-72
2023/01/09 05:29:57;;;;;;;44.00;25.70;;;;;;;0.63;82.57;95967.11;104912;1259;100487;-72
2023/01/09 05:32:25;;;;;;;44.90;25.20;;;;;;;0.66;82.61;95960.70;104840;1268;96584;-72
2023/01/09 05:34:53;;;;;;;41.30;23.60;;;;;;;0.68;82.59;95955.87;104971;1266;97080;-72
2023/01/09 05:37:21;;;;;;;44.40;25.80;;;;;;;0.68;82.64;95956.05;104853;1258;101396;-72
2023/01/09 05:39:49;;;;;;;55.50;28.90;;;;;;;0.70;82.64;95952.70;104959;1258;101966;-71
2023/01/09 05:42:17;;;;;;;52.80;29.90;;;;;;;0.69;82.67;95955.20;104929;1266;100585;-72
2023/01/09 05:44:45;;;;;;;50.80;29.40;;;;;;;0.70;82.65;95952.34;104940;1266;96798;-71
2023/01/09 05:47:13;;;;;;;46.30;27.60;;;;;;;0.70;82.66;95954.59;104974;1265;97013;-71
2023/01/09 05:49:41;;;;;;;48.90;27.60;;;;;;;0.71;82.63;95958.70;105208;1257;102642;-74
2023/01/09 05:52:10;;;;;;;48.20;27.70;;;;;;;0.75;82.80;95957.74;105185;1266;101969;-71
2023/01/09 05:54:38;;;;;;;51.10;30.40;;;;;;;0.78;82.81;95953.41;105049;1266;100721;-71
2023/01/09 05:57:06;;;;;;;52.40;30.00;;;;;;;0.80;82.78;95951.23;105155;1266;97815;-71
2023/01/09 05:59:34;;;;;;;53.70;30.30;;;;;;;0.82;82.76;95950.65;104976;1256;97473;-71
2023/01/09 06:02:02;;;;;;;53.70;31.00;;;;;;;0.83;82.75;95951.77;104974;1258;102918;-72
2023/01/09 06:04:30;;;;;;;56.40;33.70;;;;;;;0.85;82.72;95951.57;105004;1266;102181;-72
2023/01/09 06:06:58;;;;;;;59.40;33.80;;;;;;;0.85;82.73;95952.02;104951;1256;100422;-72
2023/01/09 06:09:26;;;;;;;56.40;33.60;;;;;;;0.84;82.68;95953.89;104707;1268;96616;-71
2023/01/09 06:11:55;;;;;;;59.50;34.90;;;;;;;0.85;82.82;95956.71;104957;1267;97023;-71
2023/01/09 06:14:23;;;;;;;56.60;33.50;;;;;;;0.85;82.82;95961.21;105021;1257;102995;-71
2023/01/09 06:16:51;;;;;;;55.80;32.30;;;;;;;0.88;82.91;95957.58;104468;1261;102276;-71
2023/01/09 06:19:20;;;;;;;57.80;33.40;;;;;;;0.90;82.98;95952.61;105134;1266;100543;-71
2023/01/09 06:21:48;;;;;;;62.10;34.30;;;;;;;0.93;82.85;95947.05;105089;1254;96575;-73
2023/01/09 06:24:16;;;;;;;55.30;33.10;;;;;;;0.93;82.87;95944.19;104942;1256;97098;-73
2023/01/09 06:26:44;;;;;;;58.40;34.70;;;;;;;0.92;82.87;95946.05;104969;1258;102963;-71
2023/01/09 06:29:12;;;;;;;59.90;35.00;;;;;;;0.91;82.84;95946.63;104946;1254;101925;-71
2023/01/09 06:31:40;;;;;;;59.50;34.10;;;;;;;0.93;83.00;95953.15;104869;1260;100602;-73
2023/01/09 06:34:08;;;;;;;51.40;33.00;;;;;;;0.95;83.11;95942.48;104939;1256;96571;-71
2023/01/09 06:36:36;;;;;;;54.40;33.40;;;;;;;0.94;82.97;95939.06;104871;1269;97563;-71
2023/01/09 06:39:04;;;;;;;51.30;32.30;;;;;;;0.92;83.00;95930.48;105119;1256;102765;-73
2023/01/09 06:41:32;;;;;;;48.90;32.40;;;;;;;0.91;83.16;95916.88;104930;1268;102096;-70
2023/01/09 06:44:01;;;;;;;51.70;32.40;;;;;;;0.91;83.26;95918.84;105226;1256;100663;-72
2023/01/09 06:46:29;;;;;;;56.00;35.70;;;;;;;0.90;83.18;95924.45;105242;1255;97490;-71
2023/01/09 06:48:57;;;;;;;62.60;40.30;;;;;;;0.90;83.27;95927.02;105017;1271;97384;-71
2023/01/09 06:51:25;;;;;;;61.80;40.30;;;;;;;0.91;83.41;95936.78;105068;1257;102889;-73
2023/01/09 06:53:53;;;;;;;64.10;40.20;;;;;;;0.95;83.46;95943.16;105208;1264;101809;-71
2023/01/09 06:56:21;;;;;;;58.10;38.10;;;;;;;0.99;83.34;95949.40;105286;1254;100271;-71
2023/01/09 06:58:49;;;;;;;54.60;35.80;;;;;;;1.01;83.36;95951.34;104722;1257;96776;-72
2023/01/09 07:01:17;;;;;;;57.50;36.30;;;;;;;1.01;83.25;95945.39;104879;1257;97465;-73
2023/01/09 07:03:47;;;;;;;53.30;34.60;;;;;;;1.02;83.12;95944.29;104934;1267;101232;-71
2023/01/09 07:06:15;;;;;;;57.70;35.40;;;;;;;1.02;83.19;95946.77;105112;1257;101846;-71
2023/01/09 07:08:43;;;;;;;56.80;35.50;;;;;;;1.02;83.22;95944.74;104602;1254;98887;-71
2023/01/09 07:11:11;;;;;;;60.00;37.20;;;;;;;1.04;83.16;95944.73;105088;1257;97492;-73
2023/01/09 07:13:39;;;;;;;59.20;37.20;;;;;;;1.06;83.17;95940.79;105048;1266;97146;-72
2023/01/09 07:16:08;;;;;;;67.70;40.70;;;;;;;1.08;83.17;95935.00;104989;1257;102759;-72
2023/01/09 07:18:36;;;;;;;60.70;38.40;;;;;;;1.12;83.22;95931.92;104914;1270;110662;-75
2023/01/09 07:21:06;;;;;;;59.90;37.80;;;;;;;1.15;83.30;95931.76;104943;1258;100865;-71
2023/01/09 07:23:35;;;;;;;58.60;39.50;;;;;;;1.14;83.28;95928.63;104935;1255;97570;-71
2023/01/09 07:26:03;;;;;;;68.60;40.20;;;;;;;1.13;83.26;95931.45;104810;1271;98469;-71
2023/01/09 07:28:32;;;;;;;110.80;65.80;;;;;;;1.14;83.30;95928.11;105065;1257;103034;-72
2023/01/09 07:31:03;;;;;;;119.20;71.20;;;;;;;1.16;83.43;95929.65;105143;1257;101881;-71
2023/01/09 07:33:31;;;;;;;109.10;68.00;;;;;;;1.20;83.56;95934.44;105049;1257;100461;-72
2023/01/09 07:35:59;;;;;;;70.40;46.70;;;;;;;1.25;83.57;95932.76;104936;1270;97566;-74
2023/01/09 07:38:27;;;;;;;75.40;48.80;;;;;;;1.29;83.60;95931.90;105026;1261;97763;-72
2023/01/09 07:40:56;;;;;;;75.80;49.70;;;;;;;1.33;83.64;95928.94;104728;1262;102755;-72
2023/01/09 07:43:24;;;;;;;75.70;48.60;;;;;;;1.36;83.63;95924.80;104727;1260;100676;-72
2023/01/09 07:45:52;;;;;;;79.10;50.40;;;;;;;1.41;83.73;95926.98;104721;1270;100105;-73
2023/01/09 07:48:20;;;;;;;72.50;48.90;;;;;;;1.48;83.77;95925.29;104733;1260;96670;-72
2023/01/09 07:50:48;;;;;;;75.20;49.40;;;;;;;1.51;83.73;95928.34;104845;1258;97352;-72
2023/01/09 07:53:16;;;;;;;78.20;49.10;;;;;;;1.53;83.79;95932.66;104634;1263;101158;-72
2023/01/09 07:55:44;;;;;;;79.30;47.90;;;;;;;1.56;83.70;95925.98;104777;1270;112983;-71
2023/01/09 07:58:13;;;;;;;73.50;46.70;;;;;;;1.59;83.67;95921.20;104757;1270;100459;-71
2023/01/09 08:00:41;;;;;;;80.30;51.00;;;;;;;1.63;83.85;95915.10;104883;1270;96739;-72
2023/01/09 08:03:09;;;;;;;92.80;56.50;;;;;;;1.66;83.99;95911.06;104747;1261;97188;-72
2023/01/09 08:05:37;;;;;;;90.80;57.10;;;;;;;1.72;83.84;95923.13;104901;1260;102560;-71
2023/01/09 08:08:06;;;;;;;89.60;56.10;;;;;;;1.76;83.91;95925.09;104831;1260;101078;-72
2023/01/09 08:10:34;;;;;;;88.40;57.20;;;;;;;1.81;83.93;95923.60;105127;1272;100531;-74
2023/01/09 08:13:02;;;;;;;89.70;55.70;;;;;;;1.86;83.95;95930.27;104951;1258;97510;-71
2023/01/09 08:15:32;;;;;;;81.30;50.40;;;;;;;1.92;83.99;95929.45;105011;1257;97255;-71
2023/01/09 08:18:00;;;;;;;78.80;47.90;;;;;;;1.99;84.05;95922.80;104746;1260;102924;-71
2023/01/09 08:20:28;;;;;;;78.70;47.60;;;;;;;2.04;83.96;95920.66;104968;1258;101060;-71
2023/01/09 08:22:56;;;;;;;94.30;51.20;;;;;;;2.09;84.00;95915.40;104932;1256;100544;-72
2023/01/09 08:25:25;;;;;;;90.90;50.50;;;;;;;2.14;84.09;95910.04;105039;1255;97766;-72
2023/01/09 08:27:53;;;;;;;89.90;49.90;;;;;;;2.19;84.11;95900.08;104795;1260;97266;-73
2023/01/09 08:30:21;;;;;;;90.50;51.20;;;;;;;2.27;84.23;95895.13;104973;1258;102852;-71
2023/01/09 08:32:51;;;;;;;83.90;49.20;;;;;;;2.36;84.34;95897.68;105110;1254;101756;-74
2023/01/09 08:35:20;;;;;;;78.70;46.10;;;;;;;2.47;84.47;95899.16;105109;1257;100360;-72
2023/01/09 08:37:49;;;;;;;71.70;44.30;;;;;;;2.56;84.38;95899.52;105088;1257;96585;-72
2023/01/09 08:40:18;;;;;;;79.50;46.50;;;;;;;2.65;84.33;95904.86;105207;1254;97640;-72
2023/01/09 08:48:18;;;;;;;67.60;38.70;;;;;;;2.90;84.34;95896.05;105011;1258;100938;-72
2023/01/09 08:50:46;;;;;;;63.40;38.00;;;;;;;2.98;84.32;95899.95;104949;1259;96881;-71
2023/01/09 08:53:15;;;;;;;75.10;40.70;;;;;;;3.07;84.28;95893.36;104989;1257;97130;-71
2023/01/09 08:55:43;;;;;;;65.70;40.80;;;;;;;3.15;84.11;95894.11;104956;1273;102709;-74
2023/01/09 08:58:12;;;;;;;66.10;38.50;;;;;;;3.21;84.14;95891.59;105046;1258;101910;-72
2023/01/09 09:00:40;;;;;;;65.70;37.90;;;;;;;3.27;84.20;95888.42;105081;1257;100599;-72
2023/01/09 09:03:10;;;;;;;60.90;33.30;;;;;;;3.34;84.21;95884.76;104999;1254;97912;-74
2023/01/09 09:05:38;;;;;;;55.20;32.50;;;;;;;3.42;84.22;95886.98;104936;1260;97756;-72
2023/01/09 09:08:07;;;;;;;59.40;34.70;;;;;;;3.52;84.40;95886.41;105014;1255;102824;-71
2023/01/09 09:10:35;;;;;;;55.50;34.20;;;;;;;3.62;84.47;95884.90;105067;1256;100071;-71
2023/01/09 09:13:03;;;;;;;66.30;36.50;;;;;;;3.74;84.59;95889.13;105165;1254;100340;-72
2023/01/09 09:15:33;;;;;;;68.60;39.90;;;;;;;3.89;84.66;95889.54;105130;1257;96636;-71
2023/01/09 09:18:04;;;;;;;67.30;40.40;;;;;;;4.08;84.64;95885.95;105171;1257;97851;-73
2023/01/09 09:20:37;;;;;;;65.60;39.60;;;;;;;4.29;84.63;95882.21;105334;1258;102802;-72
2023/01/09 09:23:07;;;;;;;67.40;38.30;;;;;;;4.49;84.63;95875.50;105177;1268;99992;-71
2023/01/09 09:25:37;;;;;;;65.70;37.20;;;;;;;4.72;84.60;95872.30;105094;1256;100339;-75
2023/01/09 09:28:06;;;;;;;67.70;37.10;;;;;;;4.98;84.53;95866.96;105192;1266;96561;-72
2023/01/09 09:30:34;;;;;;;57.60;33.70;;;;;;;5.26;84.54;95863.27;104841;1260;97105;-73
2023/01/09 09:33:06;;;;;;;57.90;31.50;;;;;;;5.53;84.30;95861.41;105057;1257;102843;-73
2023/01/09 09:35:34;;;;;;;54.00;30.80;;;;;;;5.80;84.13;95862.20;104940;1270;101775;-72
2023/01/09 09:38:04;;;;;;;50.80;30.60;;;;;;;6.06;84.18;95860.04;105125;1266;100331;-72
2023/01/09 09:40:41;;;;;;;53.30;32.30;;;;;;;6.31;84.22;95854.97;105165;1267;97829;-72
2023/01/09 09:46:57;;;;;;;46.50;27.10;;;;;;;6.94;84.02;95846.27;105125;1258;102726;-71
2023/01/09 09:49:34;;;;;;;46.30;25.80;;;;;;;7.26;83.99;95834.30;104405;1265;101835;-73
2023/01/09 09:52:11;;;;;;;43.70;25.30;;;;;;;7.48;83.76;95830.64;104301;1267;98871;-71
2023/01/09 09:54:48;;;;;;;45.00;24.20;;;;;;;7.65;83.31;95833.27;104472;1264;96678;-72
2023/01/09 09:57:23;;;;;;;43.10;24.50;;;;;;;7.78;83.00;95837.14;104596;1262;97144;-74
2023/01/09 09:59:52;;;;;;;44.50;23.60;;;;;;;7.90;82.70;95844.26;104385;1267;103509;-72
2023/01/09 10:02:38;;;;;;;45.80;24.00;;;;;;;8.01;82.59;95846.39;104610;1264;101333;-72
2023/01/09 10:05:15;;;;;;;39.80;21.50;;;;;;;8.16;82.38;95841.77;104554;1263;100471;-73
2023/01/09 10:07:49;;;;;;;20.70;11.40;;;;;;;8.37;82.05;95844.06;104531;1263;96811;-72
2023/01/09 10:10:39;;;;;;;16.30;9.30;;;;;;;8.62;81.26;95841.60;104636;1262;97068;-72
2023/01/09 10:16:14;;;;;;;9.50;5.60;;;;;;;9.35;80.11;95833.11;104610;1260;101763;-71
2023/01/09 10:19:05;;;;;;;12.30;5.80;;;;;;;9.61;79.66;95828.31;104788;1264;100793;-73
2023/01/09 10:21:51;;;;;;;9.80;5.90;;;;;;;9.81;79.21;95826.60;104839;1271;96760;-72
2023/01/09 10:24:39;;;;;;;6.10;4.00;;;;;;;9.92;78.48;95824.72;104684;1259;97323;-71
2023/01/09 10:27:22;;;;;;;5.30;4.10;;;;;;;9.97;77.57;95819.38;105028;1256;102658;-72
2023/01/09 10:30:08;;;;;;;5.30;4.00;;;;;;;10.02;77.14;95817.41;104807;1276;101751;-72
2023/01/09 10:32:47;;;;;;;8.10;5.70;;;;;;;10.09;76.60;95818.59;105079;1259;100145;-74
2023/01/09 10:35:49;;;;;;;7.50;5.00;;;;;;;10.23;76.25;95814.12;104995;1268;97813;-74
2023/01/09 10:38:23;;;;;;;4.90;3.60;;;;;;;10.46;76.02;95813.00;105034;1253;97897;-72
2023/01/09 10:41:01;;;;;;;6.50;3.70;;;;;;;10.68;75.57;95812.91;105207;1255;102503;-72
2023/01/09 10:43:37;;;;;;;5.70;3.60;;;;;;;10.84;74.93;95808.96;105261;1266;102069;-71
2023/01/09 10:46:11;;;;;;;5.90;3.40;;;;;;;11.03;74.35;95806.14;104965;1257;100511;-73
2023/01/09 10:48:44;;;;;;;5.70;3.80;;;;;;;11.27;74.14;95804.90;105046;1257;96588;-72
2023/01/09 10:51:27;;;;;;;4.60;3.60;;;;;;;11.44;73.49;95797.25;105169;1253;97071;-74
2023/01/09 10:53:56;;;;;;;3.90;3.30;;;;;;;11.62;72.99;95793.63;105126;1252;102601;-74
2023/01/09 10:56:27;;;;;;;3.90;2.60;;;;;;;11.79;72.48;95792.83;105196;1253;101786;-72
2023/01/09 10:58:56;;;;;;;5.30;2.90;;;;;;;11.88;71.87;95787.45;105124;1255;100491;-72
2023/01/09 11:01:36;;;;;;;4.70;2.80;;;;;;;11.93;71.58;95786.84;105114;1255;97468;-72
2023/01/09 11:04:36;;;;;;;4.60;3.10;;;;;;;11.90;70.79;95782.81;104908;1270;97015;-72
2023/01/09 11:07:20;;;;;;;4.00;3.10;;;;;;;11.81;70.42;95779.76;105119;1265;102718;-72
2023/01/09 11:10:06;;;;;;;3.30;2.70;;;;;;;11.70;69.93;95780.09;105168;1268;102054;-72
2023/01/09 11:12:36;;;;;;;5.50;3.00;;;;;;;11.76;69.59;95777.34;105034;1256;100458;-73
2023/01/09 11:15:18;;;;;;;6.10;3.10;;;;;;;11.77;69.35;95773.09;105000;1258;97857;-75
2023/01/09 11:17:47;;;;;;;3.20;2.60;;;;;;;11.76;69.06;95765.83;104750;1259;96693;-73
2023/01/09 11:20:19;;;;;;;3.40;2.40;;;;;;;11.71;68.68;95759.02;104751;1253;101363;-74
2023/01/09 11:22:54;;;;;;;5.30;2.60;;;;;;;11.73;68.63;95752.86;105172;1253;101873;-74
2023/01/09 11:25:26;;;;;;;4.80;3.40;;;;;;;11.87;68.27;95753.32;105286;1255;100216;-75
2023/01/09 11:28:03;;;;;;;6.40;4.00;;;;;;;11.91;67.96;95746.86;105020;1256;97756;-74
2023/01/09 11:30:35;;;;;;;18.00;8.70;;;;;;;11.95;68.05;95745.64;105082;1267;97176;-74
2023/01/09 11:33:23;;;;;;;8.60;3.50;;;;;;;11.91;67.83;95742.58;104621;1260;102888;-72
2023/01/09 11:36:03;;;;;;;4.70;3.50;;;;;;;11.79;67.33;95741.64;105162;1256;102036;-74
2023/01/09 11:38:44;;;;;;;30.10;12.80;;;;;;;11.71;67.32;95737.66;104838;1275;99095;-76
2023/01/09 11:41:19;;;;;;;18.80;9.60;;;;;;;11.63;67.00;95733.58;105158;1254;97221;-74
2023/01/09 11:43:50;;;;;;;4.50;3.00;;;;;;;11.63;66.95;95733.64;105235;1255;98018;-74
2023/01/09 11:46:36;;;;;;;10.90;6.90;;;;;;;11.65;66.97;95731.17;105035;1269;102800;-73
2023/01/09 11:49:21;;;;;;;9.60;5.40;;;;;;;11.71;66.76;95732.34;104985;1256;101982;-75
2023/01/09 11:52:11;;;;;;;5.50;4.00;;;;;;;11.76;66.54;95728.63;105107;1268;100780;-74
2023/01/09 11:54:54;;;;;;;4.70;3.60;;;;;;;11.90;66.50;95728.73;105009;1253;96644;-74